Latest Coastal Weather Observations for Alva Beach

IDQ60701

Issued at 5:01 pm EST Monday 30 March 2015 (issued every 10 minutes, with the page automatically refreshed every 10 minutes)

About coastal observations | Map of coastal stations | Coastal observations for QLD | Marine services | Other Formats
Station Details ID: 033295 Name: ALVA BEACH Lat: -19.46 Lon: 147.48 Height: 7.5 m
Data from the previous 72 hours. | See also: Recent months at Alva Beach
Date/Time
EST
Temp

°C
Wind Pressure Rain
since 9am
mm
Weather Cloud Vis
km
Sea
Height
m
Swell
Dir
 
Speed
knots
Gust
knots
hPa Trend Height
m
Period
s
Dir
30/05:00pm 28.8 E 12 16 1015.5 - 0.0 - - - - - - -
30/04:30pm 29.2 E 12 17 1015.4 - 0.0 - - - - - - -
30/04:00pm 29.2 E 12 16 1015.3 - 0.0 - - - - - - -
30/03:30pm 30.2 E 12 17 1015.2 - 0.0 - - - - - - -
30/03:00pm 30.2 E 13 18 1015.1 - 0.0 - - - - - - -
30/02:30pm 30.0 E 13 18 1015.1 - 0.0 - - - - - - -
30/02:00pm 30.7 ESE 10 16 1015.3 - 0.0 - - - - - - -
30/01:30pm 29.8 E 13 18 1015.4 - 0.0 - - - - - - -
30/01:00pm 31.4 ESE 12 18 1016.0 - 0.0 - - - - - - -
30/12:30pm 31.4 ESE 11 17 1016.2 - 0.0 - - - - - - -
30/12:00pm 31.5 ESE 13 20 1016.8 - 0.0 - - - - - - -
30/11:30am 31.4 ESE 10 15 1017.3 - 0.0 - - - - - - -
30/11:00am 30.8 ESE 11 17 1017.9 - 0.0 - - - - - - -
30/10:30am 29.4 ESE 11 17 1018.2 - 0.0 - - - - - - -
30/10:00am 29.9 ESE 10 16 1018.2 - 0.0 - - - - - - -
30/09:30am 28.3 SE 12 17 1018.3 - 0.0 - - - - - - -
30/09:00am 28.9 ESE 11 17 1018.0 - 0.0 - - - - - - -
30/08:30am 29.0 ESE 11 17 1017.7 - 0.0 - - - - - - -
30/08:00am 28.2 ESE 8 13 1017.3 - 0.0 - - - - - - -
30/07:30am 27.0 ESE 9 16 1016.9 - 0.0 - - - - - - -
30/07:00am 24.2 S 4 6 1016.9 - 0.0 - - - - - - -
30/06:30am 23.6 S 5 9 1016.8 - 0.0 - - - - - - -
30/06:00am 23.5 S 4 7 1016.4 - 0.0 - - - - - - -
30/05:30am 23.3 S 5 8 1016.1 - 0.0 - - - - - - -
30/05:00am 23.3 SSW 5 8 1015.9 - 0.0 - - - - - - -
30/04:30am 23.6 SSW 4 6 1015.9 - 0.0 - - - - - - -
30/04:00am 24.3 S 5 8 1015.5 - 0.0 - - - - - - -
30/03:30am 25.4 SSE 5 13 1015.4 - 0.0 - - - - - - -
30/03:00am 26.6 SE 9 17 1015.5 - 0.0 - - - - - - -
30/02:30am 26.9 ESE 12 17 1015.7 - 0.0 - - - - - - -
30/02:00am 26.9 ESE 12 16 1015.8 - 0.0 - - - - - - -
30/01:30am 26.8 ESE 13 19 1016.3 - 0.0 - - - - - - -
30/01:00am 27.1 E 14 19 1016.6 - 0.0 - - - - - - -
30/12:30am 27.2 E 14 19 1016.7 - 0.0 - - - - - - -
30/12:00am 27.3 E 15 21 1017.0 - 0.0 - - - - - - -
 
Date/Time
EST
Temp

°C
Wind Pressure Rain
since 9am
mm
Weather Cloud Vis
km
Sea
Height
m
Swell
Dir
 
Speed
knots
Gust
knots
hPa Trend Height
m
Period
s
Dir
29/11:30pm 27.2 ESE 14 21 1017.3 - 0.0 - - - - - - -
29/11:00pm 27.3 ESE 13 19 1017.5 - 0.0 - - - - - - -
29/10:30pm 27.3 ESE 15 23 1017.4 - 0.0 - - - - - - -
29/10:00pm 27.5 ESE 14 19 1017.6 - 0.0 - - - - - - -
29/09:30pm 27.5 E 14 20 1017.6 - 0.0 - - - - - - -
29/09:00pm 27.6 E 16 22 1017.5 - 0.0 - - - - - - -
29/08:30pm 27.8 E 16 23 1017.3 - 0.0 - - - - - - -
29/08:00pm 28.0 E 16 24 1017.0 - 0.0 - - - - - - -
29/07:30pm 27.8 E 17 23 1016.8 - 0.0 - - - - - - -
29/07:00pm 28.1 E 17 22 1016.4 - 0.0 - - - - - - -
29/06:30pm 28.2 E 17 23 1015.9 - 0.0 - - - - - - -
29/06:00pm 28.3 E 16 24 1015.6 - 0.0 - - - - - - -
29/05:30pm 28.5 E 16 23 1015.4 - 0.0 - - - - - - -
29/05:00pm 28.5 E 14 19 1015.3 - 0.0 - - - - - - -
29/04:30pm 28.9 E 14 20 1015.2 - 0.0 - - - - - - -
29/04:00pm 29.7 E 15 20 1015.0 - 0.0 - - - - - - -
29/03:30pm 29.8 E 13 18 1014.9 - 0.0 - - - - - - -
29/03:00pm 30.1 E 12 16 1015.0 - 0.0 - - - - - - -
29/02:30pm 29.9 E 11 17 1015.3 - 0.0 - - - - - - -
29/02:00pm 30.5 E 11 14 1015.6 - 0.0 - - - - - - -
29/01:30pm 31.1 ESE 10 16 1015.9 - 0.0 - - - - - - -
29/01:00pm 30.1 E 12 17 1016.3 - 0.0 - - - - - - -
29/12:30pm 31.0 ESE 11 16 1016.9 - 0.0 - - - - - - -
29/12:00pm 30.5 ESE 9 14 1017.4 - 0.0 - - - - - - -
29/11:30am 30.6 E 11 17 1017.5 - 0.0 - - - - - - -
29/11:00am 30.5 E 11 17 1017.9 - 0.0 - - - - - - -
29/10:30am 29.9 ESE 12 16 1018.1 - 0.0 - - - - - - -
29/10:00am 29.7 E 11 16 1018.1 - 0.0 - - - - - - -
29/09:30am 29.2 E 12 17 1018.0 - 0.0 - - - - - - -
29/09:00am 29.2 E 12 17 1017.9 - 0.0 - - - - - - -
29/08:30am 28.4 E 13 19 1017.6 - 0.0 - - - - - - -
29/08:00am 28.1 E 13 18 1017.2 - 0.0 - - - - - - -
29/07:30am 27.9 E 12 17 1016.7 - 0.0 - - - - - - -
29/07:00am 27.7 E 15 21 1016.3 - 0.0 - - - - - - -
29/06:30am 27.2 E 14 20 1015.8 - 0.0 - - - - - - -
29/06:00am 27.3 E 15 20 1015.5 - 0.0 - - - - - - -
29/05:30am 27.3 E 13 18 1015.0 - 0.0 - - - - - - -
29/05:00am 27.3 E 14 20 1014.7 - 0.0 - - - - - - -
29/04:30am 27.1 E 15 20 1014.4 - 0.0 - - - - - - -
29/04:00am 26.8 ESE 12 19 1014.3 - 0.0 - - - - - - -
29/03:30am 26.8 E 14 21 1014.3 - 0.0 - - - - - - -
29/03:00am 27.0 E 16 21 1014.4 - 0.0 - - - - - - -
29/02:30am 27.1 E 13 18 1014.5 - 0.0 - - - - - - -
29/02:00am 27.1 E 15 21 1014.8 - 0.0 - - - - - - -
29/01:30am 26.9 ESE 12 18 1015.0 - 0.0 - - - - - - -
29/01:00am 27.4 E 15 20 1015.2 - 0.0 - - - - - - -
29/12:30am 27.2 E 13 19 1015.5 - 0.0 - - - - - - -
29/12:00am 27.1 E 11 17 1016.1 - 0.0 - - - - - - -
 
Date/Time
EST
Temp

°C
Wind Pressure Rain
since 9am
mm
Weather Cloud Vis
km
Sea
Height
m
Swell
Dir
 
Speed
knots
Gust
knots
hPa Trend Height
m
Period
s
Dir
28/11:30pm 27.2 E 14 21 1016.1 - 0.0 - - - - - - -
28/11:00pm 27.2 E 14 19 1016.2 - 0.0 - - - - - - -
28/10:30pm 27.3 E 15 21 1016.3 - 0.0 - - - - - - -
28/10:00pm 27.6 E 14 20 1016.3 - 0.0 - - - - - - -
28/09:30pm 27.5 E 14 19 1016.2 - 0.0 - - - - - - -
28/09:00pm 27.7 E 16 22 1016.0 - 0.0 - - - - - - -
28/08:30pm 27.7 E 16 21 1015.7 - 0.0 - - - - - - -
28/08:00pm 27.7 E 16 22 1015.5 - 0.0 - - - - - - -
28/07:30pm 27.9 E 15 23 1015.1 - 0.0 - - - - - - -
28/07:00pm 28.1 E 16 23 1014.7 - 0.0 - - - - - - -
28/06:30pm 28.1 E 15 21 1014.3 - 0.0 - - - - - - -
28/06:00pm 28.4 E 15 21 1014.0 - 0.0 - - - - - - -
28/05:30pm 28.3 E 16 22 1013.7 - 0.0 - - - - - - -
28/05:00pm 28.6 E 15 20 1013.6 - 0.0 - - - - - - -
28/04:30pm 29.0 E 15 20 1013.5 - 0.0 - - - - - - -
28/04:00pm 29.2 E 14 20 1013.6 - 0.0 - - - - - - -
28/03:30pm 29.6 E 14 19 1013.7 - 0.0 - - - - - - -
28/03:00pm 29.6 E 16 21 1013.7 - 0.0 - - - - - - -
28/02:30pm 30.2 ENE 15 20 1013.9 - 0.0 - - - - - - -
28/02:00pm 30.0 E 11 16 1014.4 - 0.0 - - - - - - -
28/01:30pm 31.3 ESE 9 13 1014.7 - 0.0 - - - - - - -
28/01:00pm 30.4 ESE 10 14 1015.1 - 0.0 - - - - - - -
28/12:30pm 30.9 ESE 10 15 1015.4 - 0.0 - - - - - - -
28/12:00pm 31.1 ESE 8 14 1015.9 - 0.0 - - - - - - -
28/11:30am 30.7 ESE 8 15 1016.4 - 0.0 - - - - - - -
28/11:00am 31.1 ESE 7 15 1016.8 - 0.0 - - - - - - -
28/10:30am 30.5 ESE 7 13 1017.1 - 0.0 - - - - - - -
28/10:00am 29.8 ESE 8 12 1017.2 - 0.0 - - - - - - -
28/09:30am 29.3 ESE 8 12 1017.3 - 0.0 - - - - - - -
28/09:00am 28.7 SE 8 14 1017.2 - 2.2 - - - - - - -
28/08:30am 27.4 S 5 9 1017.1 - 2.2 - - - - - - -
28/08:00am 27.3 SSE 5 8 1016.8 - 2.2 - - - - - - -
28/07:30am 26.3 SSE 3 5 1016.4 - 2.2 - - - - - - -
28/07:00am 24.9 S 5 9 1016.0 - 2.2 - - - - - - -
28/06:30am 26.6 ESE 8 11 1015.7 - 2.2 - - - - - - -
28/06:00am 26.6 ESE 9 13 1015.3 - 2.2 - - - - - - -
28/05:30am 26.8 E 9 13 1015.1 - 2.2 - - - - - - -
28/05:00am 26.9 E 8 13 1014.9 - 2.2 - - - - - - -
28/04:30am 27.0 E 9 13 1014.7 - 2.2 - - - - - - -
28/04:00am 27.0 E 8 12 1014.4 - 2.2 - - - - - - -
28/03:30am 26.8 E 8 13 1014.5 - 2.2 - - - - - - -
28/03:00am 27.0 E 10 14 1014.5 - 2.2 - - - - - - -
28/02:30am 26.9 E 10 15 1014.6 - 2.2 - - - - - - -
28/02:00am 27.2 E 13 16 1014.5 - 2.2 - - - - - - -
28/01:30am 27.3 E 12 16 1014.8 - 2.2 - - - - - - -
28/01:00am 27.4 E 9 12 1015.1 - 2.2 - - - - - - -
28/12:30am 27.3 E 11 14 1015.4 - 2.2 - - - - - - -
28/12:00am 27.3 E 12 15 1015.6 - 2.2 - - - - - - -
 
Date/Time
EST
Temp

°C
Wind Pressure Rain
since 9am
mm
Weather Cloud Vis
km
Sea
Height
m
Swell
Dir
 
Speed
knots
Gust
knots
hPa Trend Height
m
Period
s
Dir
27/11:30pm 27.5 E 10 15 1015.7 - 2.2 - - - - - - -
27/11:00pm 27.5 E 11 15 1015.8 - 2.2 - - - - - - -
27/10:30pm 27.5 E 11 15 1016.0 - 2.2 - - - - - - -
27/10:00pm 27.6 ENE 11 16 1016.1 - 1.2 - - - - - - -
27/09:30pm 27.7 E 10 13 1016.1 - 0.2 - - - - - - -
27/09:00pm 27.8 E 9 12 1015.9 - 0.2 - - - - - - -
27/08:30pm 27.8 E 10 12 1015.6 - 0.2 - - - - - - -
27/08:00pm 27.9 ENE 9 12 1015.3 - 0.2 - - - - - - -
27/07:30pm 27.9 ENE 9 11 1015.0 - 0.2 - - - - - - -
27/07:00pm 28.0 ENE 11 14 1014.6 - 0.2 - - - - - - -
27/06:30pm 28.0 ENE 12 14 1014.4 - 0.2 - - - - - - -
27/06:00pm 28.1 ENE 13 16 1014.0 - 0.2 - - - - - - -
27/05:30pm 28.6 ENE 12 14 1014.1 - 0.2 - - - - - - -

Other Formats:

Comma delimited format used in spreadsheet applications
http://www.bom.gov.au/fwo/IDQ60701/IDQ60701.95296.axf

JavaScript Object Notation format (JSON) in row-major order
http://www.bom.gov.au/fwo/IDQ60701/IDQ60701.95296.json